tititudorancea.com
Station Historical Data
Daily Summary for May 25, 2018 Units:  Metric    English   Both
« Previous Day
Next Day »
Daily Weekly Monthly Yearly Custom
  High: Low: Average:
Temperature: -17.8 °C 3.6 °C 10.1 °C
Dew Point: -17.8 °C 2.4 °C 6.6 °C
Humidity: Humidity % 55 % 80 %
Wind Speed: 0 km/h 0 km/h 6.4 km/h
Wind Gust: 0 km/h - -
Wind:- - SSE
Pressure: 0 hPa 1024.6 hPa -
Precipitation: 0 mm    
Historical Graphs
 
 
Ararat weather Find more about Weather in Ararat, AU


 



 


Tabular Data for May 25, 2018
Time Temperature Dew Point Pressure Wind Wind Speed Wind Gust Humidity Rainfall Rate (Hourly)
-17.8 °C -17.8 °C 0 hPa Calm     Humidity % 0 mm
00:00 10.6 °C 9.2 °C 1027 hPa SSE 11.3 km/h 11.3 km/h 91 % 0 mm
00:05 10.5 °C 9.1 °C 1027.3 hPa South 11.1 km/h 11.1 km/h 91 % 0 mm
00:10 10.5 °C 9.1 °C 1027.3 hPa SSE 7.4 km/h 7.4 km/h 91 % 0 mm
00:15 10.5 °C 9.3 °C 1027.3 hPa South 11.3 km/h 11.3 km/h 92 % 0 mm
00:20 10.5 °C 9.3 °C 1027.3 hPa South 7.4 km/h 7.4 km/h 92 % 0 mm
00:25 10.5 °C 9.3 °C 1027 hPa SSE 9.7 km/h 9.7 km/h 92 % 0 mm
00:30 10.5 °C 9.3 °C 1027.3 hPa North 13 km/h 13 km/h 92 % 0 mm
00:35 10.5 °C 9.3 °C 1027.3 hPa South 11.3 km/h 11.3 km/h 92 % 0 mm
00:40 10.5 °C 9.3 °C 1027.3 hPa North 9.3 km/h 9.3 km/h 92 % 0 mm
00:45 10.5 °C 9.3 °C 1027.3 hPa SSE 11.1 km/h 11.1 km/h 92 % 0 mm
00:50 10.5 °C 9.3 °C 1027 hPa South 11.1 km/h 11.1 km/h 92 % 0 mm
00:55 10.5 °C 9.3 °C 1027 hPa South 16.7 km/h 16.7 km/h 92 % 0 mm
01:00 10.4 °C 9.2 °C 1027 hPa South 13 km/h 13 km/h 92 % 0 mm
01:05 10.4 °C 9.2 °C 1027 hPa South 13 km/h 13 km/h 92 % 0 mm
01:10 10.4 °C 9.2 °C 1027 hPa South 11.1 km/h 11.1 km/h 92 % 0 mm
01:15 10.4 °C 9.2 °C 1027 hPa South 9.3 km/h 9.3 km/h 92 % 0 mm
01:20 10.3 °C 9.1 °C 1027 hPa South 4.8 km/h 12.9 km/h 92 % 0 mm
01:25 10.4 °C 9.2 °C 1027 hPa South 11.1 km/h 11.1 km/h 92 % 0 mm
01:30 10.3 °C 9.3 °C 1026.6 hPa South 11.3 km/h 11.3 km/h 93 % 0 mm
01:35 10.3 °C 9.3 °C 1026.6 hPa South 9.3 km/h 9.3 km/h 93 % 0 mm
01:40 10.3 °C 9.2 °C 1026.6 hPa South 4.8 km/h 14.5 km/h 93 % 0 mm
01:45 10.3 °C 9.2 °C 1026.6 hPa South 4.8 km/h 11.3 km/h 93 % 0 mm
01:50 10.3 °C 9.2 °C 1026.6 hPa South 11.3 km/h 11.3 km/h 93 % 0 mm
01:55 10.3 °C 9.2 °C 1026.6 hPa South 9.7 km/h 12.9 km/h 93 % 0 mm
02:00 10.3 °C 9.2 °C 1026.6 hPa South 11.1 km/h 11.1 km/h 93 % 0 mm
02:05 10.3 °C 9.2 °C 1026.6 hPa South 12.9 km/h 12.9 km/h 93 % 0 mm
02:10 10.2 °C 9.2 °C 1026.6 hPa North 7.4 km/h 7.4 km/h 93 % 0 mm
02:15 10.2 °C 9.2 °C 1026.6 hPa South 8 km/h 8 km/h 93 % 0 mm
02:17 10.2 °C 9.2 °C 1026.6 hPa South 9.3 km/h 9.3 km/h 93 % 0 mm
02:22 10.2 °C 9.2 °C 1026.6 hPa South 7.4 km/h 7.4 km/h 93 % 0 mm
02:27 10.2 °C 9.2 °C 1026.6 hPa South 5.6 km/h 5.6 km/h 93 % 0 mm
02:32 10.2 °C 9.1 °C 1026.6 hPa North 7.4 km/h 7.4 km/h 93 % 0 mm
02:37 10.1 °C 9.1 °C 1026.3 hPa South 9.3 km/h 9.3 km/h 93 % 0 mm
02:42 10.2 °C 9.1 °C 1026.3 hPa North 9.3 km/h 9.3 km/h 93 % 0 mm
02:47 10.1 °C 9.1 °C 1026.3 hPa South 5.6 km/h 5.6 km/h 93 % 0 mm
02:52 10.1 °C 9.1 °C 1026.3 hPa South 7.4 km/h 7.4 km/h 93 % 0 mm
02:57 10.1 °C 9.1 °C 1026.3 hPa South 7.4 km/h 7.4 km/h 93 % 0 mm
03:02 10.1 °C 9.1 °C 1026.3 hPa South 7.4 km/h 7.4 km/h 93 % 0 mm
03:07 10.1 °C 9 °C 1026.3 hPa South 9.3 km/h 9.3 km/h 93 % 0 mm
03:12 10 °C 8.9 °C 1026.3 hPa South 11.1 km/h 11.1 km/h 93 % 0 mm
03:17 10 °C 8.9 °C 1026.3 hPa South 6.4 km/h 6.4 km/h 93 % 0 mm
03:22 10 °C 8.9 °C 1026.3 hPa North 9.3 km/h 9.3 km/h 93 % 0 mm
03:27 10 °C 8.9 °C 1026.3 hPa South 7.4 km/h 7.4 km/h 93 % 0 mm
03:32 10 °C 8.9 °C 1026.3 hPa South 11.1 km/h 11.1 km/h 93 % 0 mm
03:37 9.9 °C 8.9 °C 1026.3 hPa South 9.3 km/h 9.3 km/h 93 % 0 mm
03:42 9.9 °C 8.9 °C 1026.3 hPa South 9.3 km/h 9.3 km/h 93 % 0 mm
03:47 9.9 °C 8.9 °C 1026 hPa South 11.1 km/h 11.1 km/h 93 % 0 mm
03:48 9.9 °C 8.8 °C 1026 hPa South 11.1 km/h 11.1 km/h 93 % 0 mm
03:53 9.9 °C 8.8 °C 1026 hPa South 9.3 km/h 9.3 km/h 93 % 0 mm
03:58 9.9 °C 8.8 °C 1026 hPa South 13 km/h 13 km/h 93 % 0 mm
04:03 9.8 °C 8.6 °C 1026 hPa SSE 14.8 km/h 14.8 km/h 92 % 0 mm
04:08 9.8 °C 8.6 °C 1026 hPa SSE 11.1 km/h 11.1 km/h 92 % 0 mm
04:13 9.8 °C 8.4 °C 1026 hPa SSE 16.7 km/h 16.7 km/h 91 % 0 mm
04:18 9.7 °C 8.1 °C 1026 hPa SE 18.5 km/h 18.5 km/h 90 % 0 mm
04:23 9.7 °C 7.8 °C 1026 hPa SSE 14.8 km/h 14.8 km/h 88 % 0 mm
04:28 9.8 °C 7.6 °C 1026 hPa North 18.5 km/h 18.5 km/h 86 % 0 mm
04:33 9.9 °C 7.5 °C 1026 hPa SE 16.7 km/h 16.7 km/h 85 % 0 mm
04:38 9.9 °C 7.4 °C 1026 hPa SE 12.9 km/h 12.9 km/h 84 % 0 mm
04:43 9.9 °C 7 °C 1026 hPa SE 20.4 km/h 20.4 km/h 82 % 0 mm
04:48 9.9 °C 7 °C 1026 hPa SE 14.8 km/h 14.8 km/h 82 % 0 mm
04:53 9.9 °C 6.8 °C 1026 hPa SSE 18.5 km/h 18.5 km/h 81 % 0 mm
04:58 9.9 °C 6.8 °C 1026 hPa SE 13 km/h 13 km/h 81 % 0 mm
05:03 9.9 °C 6.8 °C 1026 hPa SE 11.1 km/h 11.1 km/h 81 % 0 mm
05:06 10 °C 6.9 °C 1026.3 hPa SE 11.1 km/h 11.1 km/h 81 % 0 mm
05:11 9.9 °C 6.8 °C 1026 hPa SE 14.8 km/h 14.8 km/h 81 % 0 mm
05:16 9.9 °C 6.8 °C 1026 hPa SE 8 km/h 8 km/h 81 % 0 mm
05:21 9.8 °C 6.7 °C 1026 hPa SSE 11.3 km/h 11.3 km/h 81 % 0 mm
05:23 9.8 °C 6.7 °C 1026.3 hPa SSE 16.7 km/h 16.7 km/h 81 % 0 mm
05:28 9.8 °C 6.7 °C 1026.3 hPa SSE 11.1 km/h 11.1 km/h 81 % 0 mm
05:33 9.8 °C 6.7 °C 1026.3 hPa SSE 16.7 km/h 16.7 km/h 81 % 0 mm
05:38 9.8 °C 6.7 °C 1026.3 hPa SSE 14.8 km/h 14.8 km/h 81 % 0 mm
05:43 9.8 °C 6.7 °C 1026.3 hPa SSE 9.7 km/h 9.7 km/h 81 % 0 mm
05:48 9.7 °C 6.6 °C 1026.3 hPa SSE 8 km/h 8 km/h 81 % 0 mm
05:53 9.7 °C 6.7 °C 1026.3 hPa SSE 5.6 km/h 5.6 km/h 82 % 0 mm
05:58 9.6 °C 6.7 °C 1026.6 hPa SSE 7.4 km/h 7.4 km/h 82 % 0 mm
06:03 9.6 °C 6.6 °C 1026.6 hPa SSE 16.7 km/h 16.7 km/h 82 % 0 mm
06:08 9.6 °C 6.7 °C 1026.6 hPa SSE 5.6 km/h 5.6 km/h 82 % 0 mm
06:13 9.6 °C 6.7 °C 1026.6 hPa SSE 9.3 km/h 9.3 km/h 82 % 0 mm
06:18 9.6 °C 6.7 °C 1026.6 hPa SSE 9.3 km/h 9.3 km/h 82 % 0 mm
06:23 9.6 °C 6.6 °C 1026.6 hPa SSE 3.7 km/h 3.7 km/h 82 % 0 mm
06:28 9.5 °C 6.6 °C 1026.6 hPa SSE 9.3 km/h 9.3 km/h 82 % 0 mm
06:33 9.4 °C 6.5 °C 1027 hPa SSE 14.8 km/h 14.8 km/h 82 % 0 mm
06:38 9.4 °C 6.5 °C 1027 hPa SSE 13 km/h 13 km/h 82 % 0 mm
06:43 9.4 °C 6.3 °C 1027 hPa SSE 11.1 km/h 11.1 km/h 81 % 0 mm
06:48 9.4 °C 6.5 °C 1027 hPa SSE 8 km/h 8 km/h 82 % 0 mm
06:53 9.3 °C 6.2 °C 1027 hPa SSE 9.3 km/h 9.3 km/h 81 % 0 mm
06:58 9.3 °C 6.4 °C 1027 hPa SSE 11.1 km/h 11.1 km/h 82 % 0 mm
07:03 9.3 °C 6.2 °C 1027 hPa SSE 5.6 km/h 5.6 km/h 81 % 0 mm
07:08 9.2 °C 6.3 °C 1027 hPa SSE 7.4 km/h 7.4 km/h 82 % 0 mm
07:13 9.1 °C 6.2 °C 1027 hPa SSE 13 km/h 13 km/h 82 % 0 mm
07:18 9.1 °C 6.2 °C 1027.3 hPa SSE 9.3 km/h 9.3 km/h 82 % 0 mm
07:23 9.1 °C 6.2 °C 1027.3 hPa SSE 7.4 km/h 7.4 km/h 82 % 0 mm
07:28 9 °C 6.1 °C 1027.3 hPa SSE 5.6 km/h 5.6 km/h 82 % 0 mm
07:33 8.9 °C 6.1 °C 1027.7 hPa SSE 3.7 km/h 3.7 km/h 82 % 0 mm
07:38 8.9 °C 6 °C 1027.7 hPa SSE 7.4 km/h 7.4 km/h 82 % 0 mm
07:43 8.8 °C 6.1 °C 1027.7 hPa SSE 5.6 km/h 5.6 km/h 83 % 0 mm
07:48 8.8 °C 5.9 °C 1027.7 hPa SSE 5.6 km/h 5.6 km/h 82 % 0 mm
07:53 8.7 °C 6 °C 1027.7 hPa SSE 6.4 km/h 6.4 km/h 83 % 0 mm
07:58 8.7 °C 5.9 °C 1027.7 hPa SSE 5.6 km/h 5.6 km/h 83 % 0 mm
08:03 8.6 °C 5.9 °C 1028 hPa SSE 5.6 km/h 5.6 km/h 83 % 0 mm
08:08 8.7 °C 6 °C 1028 hPa North 7.4 km/h 7.4 km/h 83 % 0 mm
08:13 8.8 °C 6.3 °C 1028 hPa SSE 7.4 km/h 7.4 km/h 84 % 0 mm
08:18 9 °C 6.4 °C 1028 hPa SSE 8 km/h 8 km/h 84 % 0 mm
08:23 9.1 °C 6.3 °C 1028 hPa SSE 5.6 km/h 5.6 km/h 83 % 0 mm
08:28 9.2 °C 6.4 °C 1028 hPa SSE 6.4 km/h 6.4 km/h 83 % 0 mm
08:33 9.3 °C 6.6 °C 1028 hPa SSE 5.6 km/h 5.6 km/h 83 % 0 mm
08:38 9.4 °C 6.7 °C 1028 hPa SSE 11.1 km/h 11.1 km/h 83 % 0 mm
08:43 9.5 °C 6.6 °C 1028 hPa SSE 7.4 km/h 7.4 km/h 82 % 0 mm
08:48 9.6 °C 6.7 °C 1028 hPa SSE 3.7 km/h 3.7 km/h 82 % 0 mm
08:53 9.7 °C 6.6 °C 1028 hPa SSE 5.6 km/h 5.6 km/h 81 % 0 mm
08:58 9.9 °C 6.8 °C 1028 hPa SSE 9.3 km/h 9.3 km/h 81 % 0 mm
09:03 9.9 °C 6.6 °C 1028 hPa SSE 9.3 km/h 9.3 km/h 80 % 0 mm
09:08 10.1 °C 6.8 °C 1028 hPa SSE 9.7 km/h 9.7 km/h 80 % 0 mm
09:13 10.2 °C 6.7 °C 1028 hPa SSE 13 km/h 13 km/h 79 % 0 mm
09:18 10.4 °C 6.9 °C 1028 hPa SSE 13 km/h 13 km/h 79 % 0 mm
09:23 10.4 °C 6.7 °C 1028 hPa SSE 14.8 km/h 14.8 km/h 78 % 0 mm
09:28 10.4 °C 6.7 °C 1028 hPa SSE 14.8 km/h 14.8 km/h 78 % 0 mm
09:33 10.4 °C 6.7 °C 1028 hPa SSE 13 km/h 13 km/h 78 % 0 mm
09:38 10.4 °C 6.8 °C 1028 hPa SSE 14.8 km/h 14.8 km/h 78 % 0 mm
09:43 10.6 °C 6.9 °C 1028 hPa SSE 14.8 km/h 14.8 km/h 78 % 0 mm
09:48 10.7 °C 6.8 °C 1028 hPa SSE 14.5 km/h 14.5 km/h 77 % 0 mm
09:53 10.7 °C 6.8 °C 1028 hPa SSE 11.1 km/h 11.1 km/h 77 % 0 mm
09:58 10.8 °C 6.8 °C 1028 hPa SSE 12.9 km/h 12.9 km/h 76 % 0 mm
10:03 11.1 °C 6.8 °C 1028 hPa SSE 11.1 km/h 11.1 km/h 75 % 0 mm
10:08 11.2 °C 6.9 °C 1028 hPa SSE 14.8 km/h 14.8 km/h 75 % 0 mm
10:13 11.3 °C 6.8 °C 1028 hPa SE 13 km/h 13 km/h 74 % 0 mm
10:18 11.3 °C 6.9 °C 1028 hPa SE 11.3 km/h 11.3 km/h 74 % 0 mm
10:23 11.3 °C 6.9 °C 1028 hPa SSE 14.8 km/h 14.8 km/h 74 % 0 mm
10:28 11.3 °C 6.9 °C 1028 hPa SSE 16.7 km/h 16.7 km/h 74 % 0 mm
10:33 11.2 °C 6.8 °C 1028 hPa SSE 13 km/h 13 km/h 74 % 0 mm
10:38 11.2 °C 6.7 °C 1028 hPa SSE 14.8 km/h 14.8 km/h 74 % 0 mm
10:43 11.3 °C 7 °C 1028 hPa SSE 13 km/h 13 km/h 75 % 0 mm
10:48 11.3 °C 6.9 °C 1028 hPa SSE 14.8 km/h 14.8 km/h 74 % 0 mm
10:53 11.3 °C 6.9 °C 1028 hPa SSE 18.5 km/h 18.5 km/h 74 % 0 mm
10:58 11.2 °C 6.9 °C 1028 hPa South 14.8 km/h 14.8 km/h 75 % 0 mm
11:03 11.4 °C 6.9 °C 1028 hPa SSE 14.8 km/h 14.8 km/h 74 % 0 mm
11:08 11.6 °C 7.1 °C 1027.7 hPa SSE 13 km/h 13 km/h 74 % 0 mm
11:13 11.8 °C 7.1 °C 1027.7 hPa SSE 11.3 km/h 11.3 km/h 73 % 0 mm
11:18 11.7 °C 7.1 °C 1027.7 hPa SSE 14.8 km/h 14.8 km/h 73 % 0 mm
11:23 11.8 °C 7.1 °C 1027.7 hPa SSE 13 km/h 13 km/h 73 % 0 mm
11:28 11.8 °C 7.2 °C 1027.7 hPa SSE 18.5 km/h 18.5 km/h 73 % 0 mm
11:33 11.7 °C 7.1 °C 1027.3 hPa SSE 11.1 km/h 11.1 km/h 73 % 0 mm
11:38 12.2 °C 7.4 °C 1027.3 hPa SSE 14.8 km/h 14.8 km/h 73 % 0 mm
11:43 12.2 °C 7.3 °C 1027 hPa SSE 9.7 km/h 9.7 km/h 72 % 0 mm
11:48 12.6 °C 7.7 °C 1027 hPa SSE 12.9 km/h 12.9 km/h 72 % 0 mm
11:53 12.7 °C 7.3 °C 1027 hPa SSE 7.4 km/h 7.4 km/h 70 % 0 mm
11:58 12.9 °C 7.4 °C 1027 hPa SSE 14.8 km/h 14.8 km/h 69 % 0 mm
12:03 12.8 °C 7.4 °C 1027 hPa SSE 11.1 km/h 11.1 km/h 70 % 0 mm
12:08 12.8 °C 7.1 °C 1027 hPa SSE 11.1 km/h 11.1 km/h 68 % 0 mm
12:13 12.9 °C 7.2 °C 1026.6 hPa SSE 9.3 km/h 9.3 km/h 68 % 0 mm
12:18 13.1 °C 6.9 °C 1026.6 hPa SSE 7.4 km/h 7.4 km/h 66 % 0 mm
12:23 13.1 °C 7.1 °C 1026.6 hPa SSE 14.8 km/h 14.8 km/h 67 % 0 mm
12:28 13.2 °C 7.2 °C 1026.6 hPa SSE 9.3 km/h 9.3 km/h 67 % 0 mm
12:33 13 °C 7 °C 1026.6 hPa SSE 9.3 km/h 9.3 km/h 67 % 0 mm
12:38 13.3 °C 6.8 °C 1026.3 hPa SSE 7.4 km/h 7.4 km/h 65 % 0 mm
12:43 13.4 °C 7.2 °C 1026.3 hPa SSE 9.3 km/h 9.3 km/h 66 % 0 mm
12:48 13.8 °C 7.6 °C 1026.3 hPa SSE 11.1 km/h 11.1 km/h 66 % 0 mm
12:53 13.7 °C 7.1 °C 1026 hPa SSE 14.8 km/h 14.8 km/h 64 % 0 mm
12:58 13.8 °C 7.1 °C 1026 hPa SE 9.3 km/h 9.3 km/h 64 % 0 mm
13:03 13.8 °C 6.8 °C 1026 hPa Calm     63 % 0 mm
13:08 14.1 °C 7.2 °C 1026 hPa SE 5.6 km/h 5.6 km/h 63 % 0 mm
13:13 14.5 °C 7.6 °C 1026 hPa SE 3.7 km/h 3.7 km/h 63 % 0 mm
13:18 14.8 °C 7.1 °C 1025.6 hPa SE 3.7 km/h 3.7 km/h 60 % 0 mm
13:23 15.2 °C 7.2 °C 1025.6 hPa SSE 5.6 km/h 5.6 km/h 59 % 0 mm
13:28 14.9 °C 6.9 °C 1025.6 hPa SE 9.3 km/h 9.3 km/h 59 % 0 mm
13:33 14.4 °C 6.7 °C 1025.6 hPa SSE 7.4 km/h 7.4 km/h 60 % 0 mm
13:38 14.2 °C 6.7 °C 1025.6 hPa SE 1.9 km/h   61 % 0 mm
13:43 14.6 °C 7.1 °C 1025.3 hPa SE 11.3 km/h 11.3 km/h 61 % 0 mm
13:48 14.4 °C 7 °C 1025.3 hPa SE 6.4 km/h 6.4 km/h 61 % 0 mm
13:53 14.3 °C 7.2 °C 1025.3 hPa SE 3.7 km/h 3.7 km/h 62 % 0 mm
13:58 14.4 °C 6.8 °C 1024.9 hPa SSE 7.4 km/h 7.4 km/h 60 % 0 mm
14:03 14.8 °C 7.3 °C 1024.9 hPa SE 3.7 km/h 3.7 km/h 61 % 0 mm
14:08 15 °C 6.8 °C 1024.9 hPa SE 7.4 km/h 7.4 km/h 58 % 0 mm
14:13 14.9 °C 6.7 °C 1024.9 hPa SE 5.6 km/h 6 km/h 58 % 0 mm
14:18 14.8 °C 7.1 °C 1024.9 hPa SE 5.6 km/h 5.6 km/h 60 % 0 mm
14:23 14.9 °C 7.2 °C 1024.9 hPa SE 5.6 km/h 5.6 km/h 60 % 0 mm
14:28 14.9 °C 7 °C 1024.9 hPa SE 1.9 km/h 1.9 km/h 59 % 0 mm
14:33 15.1 °C 7.2 °C 1024.9 hPa Calm   0.2 km/h 59 % 0 mm
14:38 15.2 °C 7.3 °C 1024.9 hPa SE 7.4 km/h 7.4 km/h 59 % 0 mm
14:43 15.2 °C 7.3 °C 1024.9 hPa SE 8 km/h 8 km/h 59 % 0 mm
14:48 15.2 °C 7.3 °C 1024.9 hPa SSE 6.4 km/h 6.4 km/h 59 % 0 mm
14:53 15 °C 7.3 °C 1024.9 hPa Calm     60 % 0 mm
14:58 15.1 °C 7.2 °C 1024.9 hPa SE 3.7 km/h 3.7 km/h 59 % 0 mm
15:03 15.2 °C 7.4 °C 1024.9 hPa SE 5.6 km/h 5.6 km/h 60 % 0 mm
15:09 15.4 °C 7.2 °C 1024.9 hPa SE 5.6 km/h 5.6 km/h 58 % 0 mm
15:14 15.3 °C 6.8 °C 1024.9 hPa Calm     57 % 0 mm
15:19 15.4 °C 6.9 °C 1024.9 hPa SE 3.7 km/h 3.7 km/h 57 % 0 mm
15:24 15.4 °C 6.7 °C 1024.9 hPa Calm     56 % 0 mm
15:29 15.6 °C 6.6 °C 1024.9 hPa Calm   0.3 km/h 55 % 0 mm
15:34 15.6 °C 6.6 °C 1024.9 hPa SE 1.9 km/h 1.9 km/h 55 % 0 mm
15:39 15.6 °C 6.6 °C 1024.9 hPa Calm     55 % 0 mm
15:44 15.5 °C 6.8 °C 1024.9 hPa SE 3.7 km/h 3.7 km/h 56 % 0 mm
15:49 15.4 °C 6.7 °C 1024.9 hPa SE 3.7 km/h 3.7 km/h 56 % 0 mm
15:54 15.2 °C 6.4 °C 1024.9 hPa Calm     56 % 0 mm
15:59 15.1 °C 6.7 °C 1024.9 hPa SE 3.7 km/h 3.7 km/h 57 % 0 mm
16:04 15.1 °C 6.9 °C 1024.9 hPa SE 3.7 km/h 3.7 km/h 58 % 0 mm
16:09 15 °C 6.8 °C 1024.9 hPa SE 3.7 km/h 3.7 km/h 58 % 0 mm
16:14 14.9 °C 6.7 °C 1024.9 hPa Calm     58 % 0 mm
16:19 14.8 °C 6.8 °C 1024.9 hPa Calm     59 % 0 mm
16:24 14.7 °C 6.5 °C 1024.9 hPa Calm     58 % 0 mm
16:29 14.6 °C 6.9 °C 1024.9 hPa Calm     60 % 0 mm
16:34 14.4 °C 7 °C 1024.9 hPa SE 6.4 km/h 6.4 km/h 61 % 0 mm
16:39 14.3 °C 6.8 °C 1024.9 hPa SE 1.9 km/h 1.9 km/h 61 % 0 mm
16:44 14.2 °C 7 °C 1024.9 hPa SE 3.7 km/h 3.7 km/h 62 % 0 mm
16:49 14.1 °C 7.2 °C 1024.6 hPa SE 3.7 km/h 3.7 km/h 63 % 0 mm
16:54 13.9 °C 7.4 °C 1024.9 hPa Calm     65 % 0 mm
16:59 13.8 °C 7.6 °C 1024.9 hPa SE 3.7 km/h 3.7 km/h 66 % 0 mm
17:04 13.6 °C 7.6 °C 1024.9 hPa SE 5.6 km/h 5.6 km/h 67 % 0 mm
17:09 13.3 °C 7.3 °C 1024.9 hPa SE 3.7 km/h 3.7 km/h 67 % 0 mm
17:14 13 °C 7.4 °C 1024.9 hPa SE 1.9 km/h 1.9 km/h 69 % 0 mm
17:19 12.7 °C 7.4 °C 1024.9 hPa Calm     70 % 0 mm
17:24 12.4 °C 7.1 °C 1024.9 hPa Calm     70 % 0 mm
17:29 12.1 °C 7 °C 1025.3 hPa Calm     71 % 0 mm
17:34 11.8 °C 6.9 °C 1025.3 hPa Calm     72 % 0 mm
17:39 11.5 °C 6.8 °C 1025.3 hPa SE 1.9 km/h   73 % 0 mm
17:44 11.2 °C 6.8 °C 1025.3 hPa Calm     74 % 0 mm
17:49 10.9 °C 6.7 °C 1025.3 hPa Calm     75 % 0 mm
17:54 10.7 °C 6.6 °C 1025.3 hPa Calm     76 % 0 mm
17:59 10.4 °C 6.6 °C 1025.6 hPa Calm     77 % 0 mm
18:04 10.2 °C 6.5 °C 1025.6 hPa Calm     78 % 0 mm
18:09 10 °C 6.5 °C 1025.6 hPa Calm     79 % 0 mm
18:14 9.7 °C 6.4 °C 1025.6 hPa Calm     80 % 0 mm
18:19 9.6 °C 6.4 °C 1026 hPa Calm     81 % 0 mm
18:24 9.4 °C 6.5 °C 1026 hPa Calm     82 % 0 mm
18:29 9.3 °C 6.4 °C 1026 hPa Calm     82 % 0 mm
18:34 9.2 °C 6.4 °C 1026 hPa Calm     83 % 0 mm
18:39 9.1 °C 6.4 °C 1026 hPa Calm     83 % 0 mm
18:44 9.1 °C 6.5 °C 1026 hPa Calm     84 % 0 mm
18:49 9 °C 6.4 °C 1026.3 hPa Calm     84 % 0 mm
18:54 8.9 °C 6.3 °C 1026.3 hPa Calm     84 % 0 mm
18:59 8.8 °C 6.2 °C 1026.3 hPa Calm     84 % 0 mm
19:04 8.6 °C 6.1 °C 1026.3 hPa Calm     84 % 0 mm
19:09 8.4 °C 5.9 °C 1026.3 hPa Calm     84 % 0 mm
19:14 8.2 °C 5.7 °C 1026.3 hPa Calm     84 % 0 mm
19:19 8 °C 5.4 °C 1026.6 hPa Calm     84 % 0 mm
19:24 7.8 °C 5.4 °C 1026.6 hPa Calm     85 % 0 mm
19:29 7.7 °C 5.3 °C 1026.6 hPa Calm     85 % 0 mm
19:32 7.6 °C 5.2 °C 1026.6 hPa Calm     85 % 0 mm
19:37 7.4 °C 5.4 °C 1026.6 hPa Calm     87 % 0 mm
19:42 7.3 °C 5.3 °C 1026.6 hPa Calm     87 % 0 mm
19:47 7.2 °C 5.2 °C 1026.6 hPa Calm     87 % 0 mm
19:52 7.1 °C 5.1 °C 1026.6 hPa North 1.9 km/h 1.9 km/h 87 % 0 mm
19:57 6.9 °C 4.9 °C 1026.6 hPa Calm     87 % 0 mm
20:02 6.7 °C 4.9 °C 1026.6 hPa Calm     88 % 0 mm
20:07 6.7 °C 4.8 °C 1027 hPa Calm     88 % 0 mm
20:12 6.6 °C 4.9 °C 1027 hPa Calm     89 % 0 mm
20:17 6.6 °C 4.9 °C 1027 hPa Calm     89 % 0 mm
20:22 6.6 °C 5.1 °C 1027 hPa Calm     90 % 0 mm
20:27 6.6 °C 4.9 °C 1027 hPa Calm     89 % 0 mm
20:32 6.6 °C 5.1 °C 1027 hPa Calm     90 % 0 mm
20:37 6.6 °C 5.1 °C 1027 hPa Calm     90 % 0 mm
20:42 6.7 °C 5.2 °C 1026.6 hPa Calm     90 % 0 mm
20:47 6.7 °C 5.2 °C 1026.6 hPa Calm     90 % 0 mm
20:52 6.6 °C 5.2 °C 1027 hPa Calm     91 % 0 mm
20:57 6.5 °C 5.1 °C 1027 hPa Calm     91 % 0 mm
21:02 6.6 °C 5.2 °C 1026.6 hPa Calm     91 % 0 mm
21:07 6.7 °C 5.3 °C 1027 hPa SE 1.9 km/h 1.9 km/h 91 % 0 mm
21:12 6.6 °C 5.2 °C 1026.6 hPa Calm     91 % 0 mm
21:17 6.5 °C 5.1 °C 1026.6 hPa Calm     91 % 0 mm
21:22 6.4 °C 4.9 °C 1026.6 hPa Calm     90 % 0 mm
21:24 6.2 °C 4.7 °C 1026.6 hPa Calm     90 % 0 mm
21:29 6.1 °C 4.8 °C 1026.6 hPa Calm     91 % 0 mm
21:34 6 °C 4.7 °C 1026.6 hPa Calm     91 % 0 mm
21:39 5.9 °C 4.6 °C 1026.6 hPa Calm     91 % 0 mm
21:44 5.9 °C 4.6 °C 1026.6 hPa Calm     91 % 0 mm
21:49 5.7 °C 4.4 °C 1026.6 hPa Calm     91 % 0 mm
21:54 5.5 °C 4.2 °C 1026.6 hPa Calm     91 % 0 mm
21:59 5.3 °C 3.9 °C 1026.6 hPa Calm     91 % 0 mm
22:04 5.1 °C 3.7 °C 1026.6 hPa Calm     91 % 0 mm
22:09 4.9 °C 3.6 °C 1026.6 hPa Calm     91 % 0 mm
22:14 4.7 °C 3.4 °C 1026.3 hPa Calm     91 % 0 mm
22:19 4.5 °C 3.2 °C 1026.6 hPa Calm     91 % 0 mm
22:24 4.3 °C 3 °C 1026.6 hPa Calm     91 % 0 mm
22:29 4.3 °C 3.1 °C 1026.3 hPa Calm     92 % 0 mm
22:34 4.3 °C 3.1 °C 1026.3 hPa Calm     92 % 0 mm
22:39 4.3 °C 3.1 °C 1026.3 hPa Calm     92 % 0 mm
22:44 4.2 °C 3.1 °C 1026.3 hPa Calm     92 % 0 mm
22:49 4.4 °C 3.3 °C 1026.3 hPa Calm     93 % 0 mm
22:54 4.6 °C 3.6 °C 1026.3 hPa Calm     93 % 0 mm
22:59 4.6 °C 3.6 °C 1026.3 hPa Calm     93 % 0 mm
23:04 4.5 °C 3.3 °C 1026.3 hPa Calm     92 % 0 mm
23:09 4.4 °C 3.2 °C 1026.3 hPa Calm     92 % 0 mm
23:14 4.3 °C 3.1 °C 1026 hPa Calm     92 % 0 mm
23:19 4.2 °C 3 °C 1026 hPa Calm     92 % 0 mm
23:24 4 °C 2.8 °C 1026 hPa Calm     92 % 0 mm
23:29 3.9 °C 2.7 °C 1026 hPa Calm     92 % 0 mm
23:34 3.7 °C 2.6 °C 1026 hPa Calm     92 % 0 mm
23:39 3.6 °C 2.4 °C 1026 hPa Calm     92 % 0 mm
23:44 3.6 °C 2.6 °C 1026 hPa Calm     93 % 0 mm
23:49 3.6 °C 2.6 °C 1026 hPa Calm     93 % 0 mm
23:54 3.6 °C 2.6 °C 1026 hPa Calm     93 % 0 mm
23:59 3.6 °C 2.6 °C 1026 hPa Calm     93 % 0 mm
Ararat Weather
Compliments of Weather Underground - 2.25 mb
Click here to send mail.


ABOUT

Live weather data from Ararat, Victoria, Australia, 3377
Data uploaded from Cumulus every 5 minutes to Weather Underground.
This site then downloads the raw data for formatting and display.
Metric and imperial data can be displayed. Graphs and historical data available.
Includes Sun and Moon times and rain image live from BOM.

Check out Ararat Weather on Facebook, Twitter and Google +

Help support ongoing costs by checking out the ads





Follow @AraratWeather